Time;durP1;ratioP1;P1;durP2;ratioP2;P2;SDS_P1;SDS_P2;PMS_P1;PMS_P2;Temp;Humidity;BMP_temperature;BMP_pressure;BME280_temperature;BME280_humidity;BME280_pressure;Samples;Min_cycle;Max_cycle;Signal;HPM_P1;HPM_P2
2022/06/17 00:02:14;;;;;;;9.80;8.13;;;14.80;99.90;;;;;;4987242;28;20092;-66
2022/06/17 00:04:40;;;;;;;12.52;8.80;;;14.80;99.90;;;;;;4994201;28;20034;-66
2022/06/17 00:07:12;;;;;;;10.80;9.00;;;14.80;99.90;;;;;;4988186;28;20189;-66
2022/06/17 00:09:37;;;;;;;10.63;9.13;;;14.70;99.90;;;;;;4979418;28;20118;-64
2022/06/17 00:12:06;;;;;;;9.23;8.32;;;14.60;99.90;;;;;;4993587;28;20109;-67
2022/06/17 00:15:11;;;;;;;13.25;9.00;;;14.60;99.90;;;;;;4994287;28;20181;-66
2022/06/17 00:17:22;;;;;;;10.80;9.05;;;14.60;99.90;;;;;;4978691;28;20112;-66
2022/06/17 00:19:48;;;;;;;12.43;8.77;;;14.50;99.90;;;;;;4988225;28;20038;-66
2022/06/17 00:22:13;;;;;;;9.70;8.70;;;14.40;99.90;;;;;;4993725;28;20133;-67
2022/06/17 00:24:39;;;;;;;10.93;9.02;;;14.20;99.90;;;;;;4972931;28;20125;-66
2022/06/17 00:27:06;;;;;;;13.10;10.02;;;14.20;99.90;;;;;;4993235;28;20118;-66
2022/06/17 00:29:31;;;;;;;9.93;8.70;;;14.20;99.90;;;;;;4993983;28;20093;-66
2022/06/17 00:31:58;;;;;;;11.68;9.02;;;14.10;99.90;;;;;;5022991;23;20438;-66
2022/06/17 00:34:24;;;;;;;11.10;9.10;;;14.20;99.90;;;;;;4963573;28;20039;-66
2022/06/17 00:36:55;;;;;;;12.25;9.65;;;14.00;99.90;;;;;;4966640;28;20054;-66
2022/06/17 00:39:24;;;;;;;10.57;9.45;;;13.90;99.90;;;;;;4973660;28;20042;-66
2022/06/17 00:41:58;;;;;;;14.02;10.07;;;13.80;99.90;;;;;;4958755;28;20042;-66
2022/06/17 00:44:30;;;;;;;14.15;9.93;;;13.70;99.90;;;;;;4973346;28;20038;-66
2022/06/17 00:47:14;;;;;;;11.63;10.35;;;13.60;99.90;;;;;;4974109;28;20093;-66
2022/06/17 00:49:48;;;;;;;13.13;11.73;;;13.60;99.90;;;;;;4967163;28;20085;-65
2022/06/17 00:52:19;;;;;;;13.27;11.88;;;13.60;99.90;;;;;;4978008;28;20042;-66
2022/06/17 00:54:51;;;;;;;13.20;11.63;;;13.70;99.90;;;;;;4973847;28;20770;-65
2022/06/17 00:57:25;;;;;;;;;;;13.80;99.90;;;;;;4973214;28;20045;-66
2022/06/17 01:00:12;;;;;;;14.18;11.93;;;13.80;99.90;;;;;;4970541;28;19917;-66
2022/06/17 01:02:46;;;;;;;15.30;12.65;;;13.90;99.90;;;;;;4964180;28;20074;-65
2022/06/17 01:05:12;;;;;;;14.75;13.25;;;13.90;99.90;;;;;;4972992;28;20058;-66
2022/06/17 01:07:51;;;;;;;17.13;12.05;;;13.90;99.90;;;;;;4964877;28;20439;-66
2022/06/17 01:10:17;;;;;;;13.20;11.38;;;13.90;99.90;;;;;;4969771;28;20155;-66
2022/06/17 01:12:51;;;;;;;16.13;12.70;;;13.70;99.90;;;;;;4973125;28;20035;-66
2022/06/17 01:15:20;;;;;;;17.08;12.48;;;13.70;99.90;;;;;;4970073;28;20109;-66
2022/06/17 01:17:48;;;;;;;14.52;12.90;;;13.70;99.90;;;;;;4965824;28;20035;-66
2022/06/17 01:20:15;;;;;;;15.07;11.73;;;13.70;99.90;;;;;;4968037;28;20109;-66
2022/06/17 01:22:47;;;;;;;14.32;11.05;;;13.70;99.90;;;;;;4956105;28;20047;-66
2022/06/17 01:25:21;;;;;;;12.13;10.73;;;13.70;99.90;;;;;;4961758;28;20067;-66
2022/06/17 01:27:56;;;;;;;11.10;9.90;;;13.60;99.90;;;;;;4963145;28;20447;-66
2022/06/17 01:30:25;;;;;;;12.77;11.25;;;13.50;99.90;;;;;;4973216;28;20066;-66
2022/06/17 01:32:54;;;;;;;16.27;12.70;;;13.50;99.90;;;;;;4948891;28;20041;-66
2022/06/17 01:35:22;;;;;;;15.82;13.40;;;13.50;99.90;;;;;;4961222;28;20047;-66
2022/06/17 01:37:48;;;;;;;14.48;12.80;;;13.50;99.90;;;;;;4947969;28;20045;-66
2022/06/17 01:40:15;;;;;;;17.10;12.85;;;13.40;99.90;;;;;;4968891;28;20074;-65
2022/06/17 01:42:41;;;;;;;17.00;13.80;;;13.30;99.90;;;;;;4968305;28;20042;-65
2022/06/17 01:45:08;;;;;;;18.17;14.25;;;13.30;99.90;;;;;;4972982;28;20035;-66
2022/06/17 01:47:37;;;;;;;21.42;14.45;;;13.30;99.90;;;;;;4973224;28;20081;-66
2022/06/17 01:50:16;;;;;;;16.83;14.02;;;13.30;99.90;;;;;;4964984;28;20458;-66
2022/06/17 01:52:52;;;;;;;15.38;13.63;;;13.40;99.90;;;;;;4967552;28;20042;-66
2022/06/17 01:55:26;;;;;;;14.82;13.23;;;13.40;99.90;;;;;;4972977;28;20038;-66
2022/06/17 01:58:30;;;;;;;15.90;12.43;;;13.30;99.90;;;;;;4945177;28;20398;-66
2022/06/17 02:00:57;;;;;;;13.32;11.80;;;13.30;99.90;;;;;;4929856;28;20143;-66
2022/06/17 02:03:28;;;;;;;13.88;11.25;;;13.20;99.90;;;;;;4955445;28;20364;-66
2022/06/17 02:06:08;;;;;;;13.48;10.63;;;13.20;99.90;;;;;;4953758;28;20038;-65
2022/06/17 02:08:34;;;;;;;12.10;10.63;;;13.00;99.90;;;;;;4960334;28;20446;-65
2022/06/17 02:11:03;;;;;;;13.57;11.02;;;12.90;99.90;;;;;;4972404;28;20046;-66
2022/06/17 02:13:31;;;;;;;13.07;11.40;;;12.90;99.90;;;;;;4966660;28;20042;-66
2022/06/17 02:16:00;;;;;;;12.88;9.90;;;13.00;99.90;;;;;;4964721;28;20035;-66
2022/06/17 02:18:26;;;;;;;16.42;12.40;;;12.90;99.90;;;;;;4972409;28;20046;-66
2022/06/17 02:20:55;;;;;;;19.00;14.15;;;12.90;99.90;;;;;;4965537;28;20035;-66
2022/06/17 02:23:22;;;;;;;15.38;13.30;;;12.80;99.90;;;;;;4960568;28;20054;-66
2022/06/17 02:25:51;;;;;;;15.77;12.48;;;12.80;99.90;;;;;;4963130;28;20146;-65
2022/06/17 02:28:18;;;;;;;15.43;12.98;;;12.70;99.90;;;;;;4972699;28;20515;-66
2022/06/17 02:30:47;;;;;;;17.92;13.35;;;12.70;99.90;;;;;;4959213;28;20487;-65
2022/06/17 02:33:14;;;;;;;18.10;14.15;;;12.70;99.90;;;;;;4969784;28;20561;-66
2022/06/17 02:35:55;;;;;;;19.05;14.20;;;12.70;99.90;;;;;;4970191;28;20049;-66
2022/06/17 02:38:25;;;;;;;18.05;15.52;;;12.70;99.90;;;;;;4954424;28;20047;-66
2022/06/17 02:41:00;;;;;;;22.42;15.73;;;12.70;99.90;;;;;;4974444;28;20047;-66
2022/06/17 02:43:32;;;;;;;22.17;15.55;;;12.80;99.90;;;;;;4976357;28;20479;-66
2022/06/17 02:46:07;;;;;;;19.38;15.38;;;12.80;99.90;;;;;;4972988;28;20393;-66
2022/06/17 02:48:47;;;;;;;17.15;14.32;;;12.80;99.90;;;;;;4956864;28;20051;-66
2022/06/17 02:51:13;;;;;;;21.75;16.52;;;12.80;99.90;;;;;;4975628;28;20081;-66
2022/06/17 02:53:40;;;;;;;21.85;16.38;;;12.90;99.90;;;;;;4975422;28;20082;-66
2022/06/17 02:56:18;;;;;;;21.10;17.23;;;12.80;99.90;;;;;;4962540;28;20043;-66
2022/06/17 02:59:13;;;;;;;22.70;17.55;;;12.90;99.90;;;;;;4969741;28;20038;-65
2022/06/17 03:01:41;;;;;;;22.58;17.00;;;12.90;99.90;;;;;;4950786;28;20059;-66
2022/06/17 03:04:17;;;;;;;22.45;16.95;;;12.90;99.90;;;;;;4972586;28;20049;-66
2022/06/17 03:06:45;;;;;;;22.38;16.77;;;12.90;99.90;;;;;;4975404;28;20102;-66
2022/06/17 03:09:40;;;;;;;20.10;14.57;;;13.00;99.90;;;;;;4975565;28;20066;-66
2022/06/17 03:12:10;;;;;;;20.45;14.98;;;13.00;99.90;;;;;;4969978;28;20077;-66
2022/06/17 03:15:01;;;;;;;17.85;14.57;;;12.90;99.90;;;;;;4955709;28;20062;-66
2022/06/17 03:17:28;;;;;;;17.83;15.05;;;12.80;99.90;;;;;;4975504;28;20034;-67
2022/06/17 03:19:56;;;;;;;16.40;14.38;;;12.80;99.90;;;;;;4968666;28;20123;-66
2022/06/17 03:22:24;;;;;;;16.42;13.68;;;12.80;99.90;;;;;;4963257;28;20117;-65
2022/06/17 03:25:16;;;;;;;21.58;13.52;;;12.80;99.90;;;;;;4966913;28;20592;-66
2022/06/17 03:27:47;;;;;;;17.65;14.15;;;12.80;99.90;;;;;;4968698;28;20070;-65
2022/06/17 03:30:28;;;;;;;23.40;17.03;;;13.00;99.90;;;;;;4957346;28;20054;-66
2022/06/17 03:33:00;;;;;;;20.08;16.63;;;13.20;99.90;;;;;;4951192;28;20438;-65
2022/06/17 03:35:31;;;;;;;21.25;15.73;;;13.20;99.90;;;;;;4967370;28;20047;-66
2022/06/17 03:38:22;;;;;;;20.63;16.37;;;13.30;99.90;;;;;;4962005;28;20500;-66
2022/06/17 03:40:52;;;;;;;18.40;15.43;;;13.40;99.90;;;;;;4973617;28;20049;-66
2022/06/17 03:43:29;;;;;;;18.00;15.50;;;13.40;99.90;;;;;;4965473;28;20066;-66
2022/06/17 03:46:07;;;;;;;21.63;16.38;;;13.50;99.90;;;;;;4971572;28;20042;-66
2022/06/17 03:48:51;;;;;;;18.05;15.23;;;13.50;99.90;;;;;;4956891;28;20046;-66
2022/06/17 03:51:20;;;;;;;23.27;16.20;;;13.60;99.90;;;;;;4974120;28;20047;-66
2022/06/17 03:53:46;;;;;;;19.42;16.77;;;13.60;99.90;;;;;;4954730;28;20077;-66
2022/06/17 03:56:18;;;;;;;24.25;17.27;;;13.80;99.90;;;;;;4967100;28;20051;-66
2022/06/17 03:58:45;;;;;;;24.20;19.08;;;13.90;99.90;;;;;;4974656;28;20499;-66
2022/06/17 04:01:29;;;;;;;29.27;18.92;;;14.00;99.90;;;;;;4968365;28;20073;-66
2022/06/17 04:04:00;;;;;;;26.17;18.58;;;14.20;99.90;;;;;;4955458;28;20093;-66
2022/06/17 04:06:40;;;;;;;23.00;17.90;;;14.30;99.90;;;;;;4965189;28;20090;-66
2022/06/17 04:09:17;;;;;;;22.23;17.83;;;14.40;99.90;;;;;;4965206;28;20561;-66
2022/06/17 04:11:52;;;;;;;21.95;16.80;;;14.50;99.90;;;;;;4966459;28;20038;-66
2022/06/17 04:14:47;;;;;;;31.08;15.80;;;14.60;99.90;;;;;;4974462;28;20573;-66
2022/06/17 04:17:24;;;;;;;20.70;17.15;;;14.60;99.90;;;;;;4954110;28;20046;-66
2022/06/17 04:20:21;;;;;;;24.00;17.15;;;14.60;99.90;;;;;;4958218;28;20053;-66
2022/06/17 04:22:50;;;;;;;29.55;18.98;;;14.70;99.90;;;;;;4957577;28;20054;-66
2022/06/17 04:25:26;;;;;;;27.00;20.15;;;14.90;99.90;;;;;;4970532;28;20057;-66
2022/06/17 04:27:56;;;;;;;23.60;19.08;;;15.00;99.90;;;;;;4946199;28;20042;-66
2022/06/17 04:30:27;;;;;;;26.92;20.15;;;15.10;99.90;;;;;;4961301;28;20486;-66
2022/06/17 04:32:57;;;;;;;24.02;19.58;;;15.20;99.90;;;;;;4973153;28;20078;-66
2022/06/17 04:35:23;;;;;;;22.45;19.75;;;15.40;99.90;;;;;;4964456;28;20078;-66
2022/06/17 04:37:48;;;;;;;25.95;19.73;;;15.50;99.90;;;;;;4960047;28;20078;-66
2022/06/17 04:40:37;;;;;;;23.92;19.85;;;15.50;99.90;;;;;;4973582;28;20042;-65
2022/06/17 04:43:11;;;;;;;23.65;19.77;;;15.60;99.90;;;;;;4958054;28;20487;-66
2022/06/17 04:45:36;;;;;;;23.48;20.45;;;15.60;99.90;;;;;;4955696;28;20466;-66
2022/06/17 04:48:02;;;;;;;24.58;21.58;;;15.60;99.90;;;;;;4974009;28;20074;-66
2022/06/17 04:50:31;;;;;;;25.58;21.20;;;15.60;99.90;;;;;;4969389;28;20045;-67
2022/06/17 04:52:57;;;;;;;29.50;22.33;;;15.60;99.90;;;;;;4965771;28;20122;-66
2022/06/17 04:55:38;;;;;;;27.35;21.38;;;15.70;99.90;;;;;;4973642;28;20038;-66
2022/06/17 04:58:04;;;;;;;26.40;21.58;;;15.80;99.90;;;;;;4971959;28;20043;-67
2022/06/17 05:00:30;;;;;;;24.88;21.15;;;16.00;99.90;;;;;;4952557;28;20050;-67
2022/06/17 05:02:57;;;;;;;26.90;21.13;;;16.00;99.90;;;;;;4970369;28;20526;-66
2022/06/17 05:05:35;;;;;;;24.05;20.20;;;16.10;99.90;;;;;;4960986;28;20424;-66
2022/06/17 05:08:05;;;;;;;24.63;20.60;;;16.20;99.90;;;;;;4962972;28;20062;-66
2022/06/17 05:10:36;;;;;;;26.15;19.90;;;16.30;99.90;;;;;;4966182;28;20109;-66
2022/06/17 05:13:04;;;;;;;;;;;16.30;99.90;;;;;;4966100;28;20085;-67
2022/06/17 05:15:30;;;;;;;23.67;18.98;;;16.40;99.90;;;;;;4956885;28;19944;-66
2022/06/17 05:17:56;;;;;;;22.25;18.60;;;16.40;99.90;;;;;;4958194;28;20546;-66
2022/06/17 05:20:24;;;;;;;23.77;19.40;;;16.50;99.90;;;;;;4951553;28;20561;-66
2022/06/17 05:22:58;;;;;;;23.63;17.92;;;16.50;99.90;;;;;;4972757;28;20059;-66
2022/06/17 05:25:27;;;;;;;24.23;18.45;;;16.60;99.90;;;;;;4967002;28;20628;-66
2022/06/17 05:27:53;;;;;;;21.95;17.73;;;16.70;99.90;;;;;;4963213;28;20126;-66
2022/06/17 05:30:19;;;;;;;21.27;17.13;;;16.60;99.90;;;;;;4972362;28;20558;-67
2022/06/17 05:32:48;;;;;;;20.88;17.48;;;16.70;99.90;;;;;;4950800;28;20080;-67
2022/06/17 05:35:14;;;;;;;19.85;17.58;;;16.80;99.90;;;;;;4954241;28;20093;-67
2022/06/17 05:37:39;;;;;;;24.25;17.30;;;16.80;99.90;;;;;;4970890;28;20046;-67
2022/06/17 05:40:08;;;;;;;23.45;17.70;;;16.90;99.90;;;;;;4972459;28;20057;-67
2022/06/17 05:42:34;;;;;;;23.63;17.98;;;17.00;99.90;;;;;;4952023;28;20057;-67
2022/06/17 05:45:00;;;;;;;24.63;17.98;;;17.00;99.90;;;;;;4966687;28;20075;-66
2022/06/17 05:47:25;;;;;;;24.58;18.45;;;17.10;99.90;;;;;;4969465;28;20062;-67
2022/06/17 05:49:51;;;;;;;20.58;17.00;;;17.20;99.90;;;;;;4960587;28;20043;-67
2022/06/17 05:52:18;;;;;;;21.05;17.55;;;17.20;99.90;;;;;;4963186;28;20073;-66
2022/06/17 05:54:45;;;;;;;22.63;16.95;;;17.30;99.90;;;;;;4962164;28;20049;-67
2022/06/17 05:57:10;;;;;;;22.48;18.70;;;17.40;99.90;;;;;;4971267;28;20035;-67
2022/06/17 05:59:36;;;;;;;26.25;18.35;;;17.50;99.90;;;;;;4967981;28;20376;-67
2022/06/17 06:02:02;;;;;;;20.65;17.30;;;17.40;99.90;;;;;;4937029;28;23762;-67
2022/06/17 06:04:30;;;;;;;23.98;17.65;;;17.50;99.90;;;;;;4953884;28;20455;-65
2022/06/17 06:06:56;;;;;;;19.85;16.75;;;17.50;99.90;;;;;;4956735;28;20118;-66
2022/06/17 06:09:22;;;;;;;19.10;15.82;;;17.60;99.90;;;;;;4956977;28;20122;-67
2022/06/17 06:11:47;;;;;;;19.88;15.68;;;17.60;99.90;;;;;;4964355;28;20479;-67
2022/06/17 06:14:13;;;;;;;20.65;15.40;;;17.70;99.90;;;;;;4972310;28;20031;-67
2022/06/17 06:16:39;;;;;;;18.02;14.98;;;17.70;99.90;;;;;;4965193;28;20534;-67
2022/06/17 06:19:05;;;;;;;15.93;13.73;;;17.80;99.90;;;;;;4956081;28;20049;-67
2022/06/17 06:21:31;;;;;;;18.33;14.63;;;17.90;99.90;;;;;;4971945;28;20070;-67
2022/06/17 06:23:56;;;;;;;21.65;14.75;;;17.90;99.90;;;;;;4957210;28;20082;-67
2022/06/17 06:26:23;;;;;;;20.13;14.73;;;17.90;99.90;;;;;;4951926;28;20049;-67
2022/06/17 06:28:49;;;;;;;17.73;15.27;;;17.90;99.90;;;;;;4972249;28;20097;-67
2022/06/17 06:31:41;;;;;;;20.65;15.68;;;18.00;99.90;;;;;;4944401;28;20051;-66
2022/06/17 06:34:10;;;;;;;18.27;15.02;;;18.00;99.90;;;;;;4964739;28;20074;-67
2022/06/17 06:36:36;;;;;;;19.23;15.75;;;18.00;99.90;;;;;;4972579;28;20070;-66
2022/06/17 06:39:02;;;;;;;19.52;15.75;;;18.00;99.90;;;;;;4969940;28;20402;-65
2022/06/17 06:41:27;;;;;;;19.83;14.88;;;18.10;99.90;;;;;;4958218;28;20066;-67
2022/06/17 06:43:53;;;;;;;18.05;15.00;;;18.20;99.90;;;;;;4962563;28;20038;-67
2022/06/17 06:46:21;;;;;;;18.50;15.27;;;18.30;99.90;;;;;;4972428;28;20035;-67
2022/06/17 06:48:47;;;;;;;18.95;14.93;;;18.50;99.90;;;;;;4949116;28;20081;-67
2022/06/17 06:51:12;;;;;;;18.10;14.27;;;18.60;99.90;;;;;;4968823;28;20043;-67
2022/06/17 06:53:38;;;;;;;18.13;14.10;;;18.60;99.90;;;;;;4972187;28;20117;-67
2022/06/17 06:56:07;;;;;;;20.23;14.82;;;18.80;99.90;;;;;;4963038;28;20063;-67
2022/06/17 06:58:33;;;;;;;20.02;14.50;;;19.00;99.90;;;;;;4961160;28;20384;-67
2022/06/17 07:00:58;;;;;;;21.00;15.23;;;19.20;99.90;;;;;;4971694;28;20042;-68
2022/06/17 07:03:26;;;;;;;17.33;14.85;;;19.40;99.90;;;;;;4954940;28;20043;-67
2022/06/17 07:05:55;;;;;;;17.95;14.07;;;19.50;99.90;;;;;;4968413;28;20031;-67
2022/06/17 07:08:25;;;;;;;20.73;14.82;;;19.60;99.90;;;;;;4964046;28;20047;-67
2022/06/17 07:10:52;;;;;;;17.15;14.07;;;19.80;99.90;;;;;;4954972;28;20439;-67
2022/06/17 07:13:19;;;;;;;16.77;14.45;;;20.00;99.90;;;;;;4944834;29;20058;-67
2022/06/17 07:15:46;;;;;;;42.38;15.25;;;20.10;99.90;;;;;;4956495;28;20038;-67
2022/06/17 07:18:19;;;;;;;25.38;13.02;;;20.20;99.90;;;;;;4944562;28;20503;-67
2022/06/17 07:20:48;;;;;;;66.50;16.90;;;20.40;99.90;;;;;;4971108;28;20031;-67
2022/06/17 07:23:17;;;;;;;18.63;13.88;;;20.50;99.90;;;;;;4972089;28;20121;-67
2022/06/17 07:25:43;;;;;;;16.23;12.82;;;20.60;99.90;;;;;;4968109;28;20080;-68
2022/06/17 07:28:15;;;;;;;16.20;13.13;;;20.60;99.90;;;;;;4964341;28;20635;-67
2022/06/17 07:30:42;;;;;;;;;;;20.60;99.90;;;;;;4969391;28;20035;-67
2022/06/17 07:33:08;;;;;;;12.00;10.77;;;20.50;99.90;;;;;;4974099;28;19918;-67
2022/06/17 07:35:33;;;;;;;14.57;11.40;;;20.50;99.90;;;;;;4974291;28;20043;-66
2022/06/17 07:40:47;;;;;;;15.00;10.25;;;20.70;99.90;;;;;;4964119;28;20114;-67
2022/06/17 07:43:15;;;;;;;12.30;9.60;;;20.80;99.90;;;;;;4974736;28;20050;-66
2022/06/17 07:45:41;;;;;;;13.15;10.18;;;21.00;99.90;;;;;;4972004;28;20097;-67
2022/06/17 07:48:09;;;;;;;15.90;10.73;;;21.20;99.90;;;;;;4963934;28;20062;-66
2022/06/17 07:50:37;;;;;;;11.43;8.73;;;21.40;99.90;;;;;;4972780;28;20039;-67
2022/06/17 07:53:03;;;;;;;13.68;9.65;;;21.60;99.90;;;;;;4961600;28;20102;-67
2022/06/17 07:55:29;;;;;;;13.30;9.82;;;21.50;99.90;;;;;;4966664;28;20050;-67
2022/06/17 07:57:55;;;;;;;12.00;10.15;;;21.50;99.90;;;;;;4975067;28;20035;-66
2022/06/17 08:00:31;;;;;;;15.82;9.02;;;21.50;99.90;;;;;;4969377;28;20037;-66
2022/06/17 08:02:57;;;;;;;11.63;9.77;;;21.50;99.90;;;;;;4946490;28;20157;-66
2022/06/17 08:05:22;;;;;;;11.98;10.38;;;21.70;99.90;;;;;;4956059;28;20509;-66
2022/06/17 08:07:49;;;;;;;13.05;9.90;;;21.90;99.90;;;;;;4974744;28;20039;-66
2022/06/17 08:10:18;;;;;;;12.65;10.00;;;22.20;99.90;;;;;;4966961;28;20078;-66
2022/06/17 08:12:44;;;;;;;15.88;10.30;;;22.40;99.90;;;;;;4968580;28;20089;-67
2022/06/17 08:15:12;;;;;;;13.48;9.27;;;22.50;99.90;;;;;;4974276;28;20043;-67
2022/06/17 08:17:38;;;;;;;11.90;8.90;;;22.40;99.90;;;;;;4956697;28;20550;-65
2022/06/17 08:20:09;;;;;;;16.85;9.90;;;22.60;99.90;;;;;;4955154;28;20499;-66
2022/06/17 08:22:38;;;;;;;11.77;9.13;;;22.80;99.90;;;;;;4966148;28;20054;-67
2022/06/17 08:25:04;;;;;;;19.25;10.88;;;22.90;99.90;;;;;;4974394;28;20039;-66
2022/06/17 08:27:30;;;;;;;12.40;9.13;;;23.00;99.90;;;;;;4956015;28;20562;-68
2022/06/17 08:29:55;;;;;;;10.77;9.30;;;23.20;99.90;;;;;;4955170;28;20043;-66
2022/06/17 08:35:05;;;;;;;11.88;7.85;;;23.70;99.90;;;;;;4988928;28;20046;-67
2022/06/17 08:37:32;;;;;;;8.57;6.53;;;23.70;99.20;;;;;;4963888;28;20042;-67
2022/06/17 08:39:58;;;;;;;10.02;6.80;;;23.40;95.70;;;;;;4989821;28;20036;-66
2022/06/17 08:42:48;;;;;;;13.18;7.00;;;23.00;95.50;;;;;;4993544;28;20045;-67
2022/06/17 08:45:25;;;;;;;11.77;6.93;;;22.80;94.50;;;;;;4984196;28;20522;-67
2022/06/17 08:48:06;;;;;;;9.95;6.70;;;22.70;96.30;;;;;;4968558;28;20046;-67
2022/06/17 08:50:35;;;;;;;10.13;6.60;;;22.80;97.90;;;;;;4975376;28;20606;-67
2022/06/17 08:53:30;;;;;;;12.00;7.53;;;23.00;97.10;;;;;;4989053;28;20047;-67
2022/06/17 08:56:24;;;;;;;11.70;6.57;;;23.00;93.60;;;;;;4993050;28;20132;-67
2022/06/17 08:58:59;;;;;;;84.03;26.50;;;23.10;94.90;;;;;;4980342;28;20525;-66
2022/06/17 09:01:45;;;;;;;16.70;8.68;;;23.20;95.60;;;;;;4985821;28;20043;-67
2022/06/17 09:04:49;;;;;;;14.10;7.80;;;23.10;95.50;;;;;;4983762;28;20034;-67
2022/06/17 09:07:47;;;;;;;9.68;6.85;;;23.10;94.40;;;;;;4971471;28;20046;-67
2022/06/17 09:10:31;;;;;;;16.90;5.82;;;23.10;97.50;;;;;;4924122;28;20141;-67
2022/06/17 09:13:28;;;;;;;9.52;5.78;;;23.00;96.20;;;;;;4987759;28;20097;-67
2022/06/17 09:16:23;;;;;;;12.65;6.13;;;22.90;95.00;;;;;;4968512;28;20051;-67
2022/06/17 09:18:55;;;;;;;14.77;6.30;;;22.90;95.20;;;;;;4969779;28;20650;-67
2022/06/17 09:21:30;;;;;;;10.77;6.05;;;22.80;95.20;;;;;;4991442;28;20050;-66
2022/06/17 09:24:05;;;;;;;8.48;6.03;;;23.00;96.20;;;;;;4987006;28;20088;-67
2022/06/17 09:26:44;;;;;;;19.60;8.20;;;23.10;96.50;;;;;;4963747;28;20087;-67
2022/06/17 09:29:33;;;;;;;13.70;7.63;;;23.10;95.90;;;;;;4964984;28;20077;-67
2022/06/17 09:32:09;;;;;;;9.10;6.95;;;23.10;95.90;;;;;;4983960;28;20511;-67
2022/06/17 09:35:05;;;;;;;10.00;6.68;;;23.20;95.30;;;;;;4951875;28;20043;-67
2022/06/17 09:37:37;;;;;;;12.80;7.10;;;23.20;96.10;;;;;;4956589;28;20523;-67
2022/06/17 09:40:14;;;;;;;12.27;6.70;;;23.30;96.90;;;;;;4958917;28;20042;-67
2022/06/17 09:42:49;;;;;;;10.40;6.90;;;23.40;95.50;;;;;;4974276;28;20275;-67
2022/06/17 09:45:17;;;;;;;9.93;7.57;;;23.70;95.60;;;;;;4953417;28;20055;-67
2022/06/17 09:47:56;;;;;;;13.52;8.00;;;23.90;95.30;;;;;;4953662;28;20070;-67
2022/06/17 09:50:30;;;;;;;12.38;7.35;;;24.10;95.00;;;;;;4945808;28;20062;-67
2022/06/17 09:53:08;;;;;;;11.43;7.43;;;24.20;94.40;;;;;;4966953;28;20038;-67
2022/06/17 09:55:45;;;;;;;9.35;7.68;;;24.30;95.30;;;;;;4945562;28;20061;-67
2022/06/17 09:58:23;;;;;;;12.15;7.78;;;24.30;95.00;;;;;;4971922;28;20075;-67
2022/06/17 10:00:53;;;;;;;11.63;8.07;;;24.10;92.70;;;;;;4960055;28;20052;-67
2022/06/17 10:03:28;;;;;;;12.73;7.80;;;24.20;94.30;;;;;;4971223;28;20495;-67
2022/06/17 10:06:17;;;;;;;13.50;7.97;;;24.40;95.20;;;;;;4952120;28;20114;-67
2022/06/17 10:08:59;;;;;;;12.40;7.60;;;24.60;95.70;;;;;;4949818;28;20109;-66
2022/06/17 10:11:46;;;;;;;11.35;7.07;;;24.80;95.40;;;;;;4968560;28;20042;-67
2022/06/17 10:14:12;;;;;;;16.90;6.90;;;24.80;90.80;;;;;;4942639;28;20058;-67
2022/06/17 10:20:14;;;;;;;9.93;6.18;;;24.80;94.50;;;;;;4949751;28;20438;-66
2022/06/17 10:22:51;;;;;;;7.53;5.78;;;24.80;90.70;;;;;;4963998;28;21085;-68
2022/06/17 10:25:38;;;;;;;9.18;6.22;;;24.80;90.30;;;;;;4943407;28;20050;-67
2022/06/17 10:28:41;;;;;;;8.82;6.10;;;24.90;93.10;;;;;;4965330;28;20503;-67
2022/06/17 10:31:35;;;;;;;9.52;6.38;;;24.90;90.50;;;;;;4964638;28;20043;-67
2022/06/17 10:34:12;;;;;;;10.93;6.07;;;25.10;89.70;;;;;;4961821;28;20070;-67
2022/06/17 10:36:38;;;;;;;12.20;6.60;;;25.10;91.40;;;;;;4968463;28;20074;-67
2022/06/17 10:39:10;;;;;;;12.00;6.72;;;25.30;91.90;;;;;;4968280;28;20054;-67
2022/06/17 10:41:36;;;;;;;11.80;5.90;;;25.30;90.20;;;;;;4989247;28;20046;-66
2022/06/17 10:44:03;;;;;;;8.25;5.75;;;25.40;92.60;;;;;;4990659;28;20046;-67
2022/06/17 10:46:36;;;;;;;9.35;5.68;;;25.40;92.30;;;;;;4979336;28;20043;-67
2022/06/17 10:49:44;;;;;;;13.23;6.85;;;25.30;84.90;;;;;;4983895;28;20053;-66
2022/06/17 10:52:26;;;;;;;12.98;7.03;;;25.40;87.70;;;;;;4913379;29;20131;-66
2022/06/17 10:54:54;;;;;;;8.48;6.13;;;25.40;90.10;;;;;;4930234;29;20047;-67
2022/06/17 10:57:26;;;;;;;9.60;6.18;;;25.50;92.00;;;;;;4946115;28;20122;-68
2022/06/17 10:59:52;;;;;;;13.13;6.32;;;25.70;88.30;;;;;;4955346;28;20658;-68
2022/06/17 11:02:21;;;;;;;12.77;6.30;;;25.50;90.90;;;;;;4988487;28;20049;-68
2022/06/17 11:04:55;;;;;;;8.90;5.05;;;25.60;90.50;;;;;;4994473;28;20049;-67
2022/06/17 11:07:48;;;;;;;8.65;5.38;;;25.70;87.90;;;;;;4979659;28;20046;-68
2022/06/17 11:10:13;;;;;;;9.55;5.47;;;25.70;85.20;;;;;;4976699;28;20411;-68
2022/06/17 11:12:43;;;;;;;8.77;5.28;;;25.60;86.50;;;;;;4992970;28;20044;-67
2022/06/17 11:15:20;;;;;;;7.82;5.25;;;25.60;86.40;;;;;;4991424;28;20046;-66
2022/06/17 11:17:50;;;;;;;8.63;5.63;;;25.60;83.50;;;;;;4975353;28;20042;-68
2022/06/17 11:20:16;;;;;;;7.30;5.22;;;25.80;87.40;;;;;;4993777;28;20117;-67
2022/06/17 11:22:53;;;;;;;7.80;5.68;;;25.90;88.40;;;;;;4982514;28;20129;-67
2022/06/17 11:25:31;;;;;;;8.82;5.00;;;26.00;88.60;;;;;;4975425;28;20050;-67
2022/06/17 11:28:07;;;;;;;6.88;5.57;;;25.80;85.20;;;;;;4983571;28;20113;-65
2022/06/17 11:30:38;;;;;;;10.00;5.97;;;25.90;88.50;;;;;;4981415;28;20133;-67
2022/06/17 11:33:30;;;;;;;10.98;5.22;;;25.90;89.30;;;;;;4960627;28;20061;-68
2022/06/17 11:36:14;;;;;;;9.20;5.03;;;25.60;75.40;;;;;;4972348;28;20542;-68
2022/06/17 11:38:40;;;;;;;7.15;4.88;;;25.60;82.70;;;;;;4959572;28;20031;-68
2022/06/17 11:41:06;;;;;;;7.63;5.68;;;25.60;84.20;;;;;;4959341;28;20042;-67
2022/06/17 11:43:38;;;;;;;9.88;5.30;;;25.60;88.00;;;;;;4970075;28;20039;-68
2022/06/17 11:46:25;;;;;;;12.75;5.80;;;25.70;88.10;;;;;;4954573;28;20050;-67
2022/06/17 11:49:05;;;;;;;10.25;5.65;;;26.00;91.10;;;;;;4948194;28;20038;-67
2022/06/17 11:51:34;;;;;;;8.48;5.30;;;26.20;91.90;;;;;;4972690;28;20074;-66
2022/06/17 11:54:04;;;;;;;9.65;5.57;;;26.10;86.70;;;;;;4979756;28;20050;-67
2022/06/17 11:56:42;;;;;;;10.68;5.85;;;26.30;88.70;;;;;;4959485;28;20039;-67
2022/06/17 11:59:18;;;;;;;9.00;4.95;;;26.60;93.20;;;;;;4945878;28;20035;-67
2022/06/17 12:02:01;;;;;;;8.15;5.55;;;26.90;81.80;;;;;;4954010;28;20035;-67
2022/06/17 12:04:49;;;;;;;6.75;4.80;;;27.30;89.20;;;;;;4954576;28;20047;-67
2022/06/17 12:07:27;;;;;;;9.40;5.90;;;27.40;77.70;;;;;;4952331;28;20082;-67
2022/06/17 12:10:22;;;;;;;9.73;5.80;;;27.40;83.50;;;;;;4966362;28;20039;-67
2022/06/17 12:12:51;;;;;;;13.00;5.68;;;27.90;86.00;;;;;;4944076;28;20054;-67
2022/06/17 12:15:36;;;;;;;10.07;5.50;;;28.40;82.50;;;;;;4965126;28;20062;-68
2022/06/17 12:18:04;;;;;;;6.57;5.70;;;28.50;77.00;;;;;;4973695;28;20089;-67
2022/06/17 12:20:54;;;;;;;6.97;5.68;;;28.70;82.50;;;;;;4972181;28;20046;-67
2022/06/17 12:23:33;;;;;;;11.07;6.75;;;28.50;73.70;;;;;;4967435;28;20042;-66
2022/06/17 12:26:08;;;;;;;10.90;6.05;;;28.50;72.20;;;;;;4955925;28;20159;-67
2022/06/17 12:28:45;;;;;;;8.10;6.20;;;28.70;77.80;;;;;;4956219;28;20050;-67
2022/06/17 12:31:27;;;;;;;10.02;5.47;;;28.60;75.60;;;;;;4951486;28;20070;-67
2022/06/17 12:34:04;;;;;;;9.35;5.88;;;28.50;69.90;;;;;;4966989;28;20038;-67
2022/06/17 12:36:47;;;;;;;10.07;5.55;;;27.90;71.30;;;;;;4951584;28;20058;-66
2022/06/17 12:39:31;;;;;;;7.93;5.03;;;27.90;73.90;;;;;;4966319;28;20038;-66
2022/06/17 12:42:05;;;;;;;6.25;5.65;;;28.00;72.90;;;;;;4946973;28;20439;-66
2022/06/17 12:44:30;;;;;;;10.73;5.63;;;28.30;70.40;;;;;;4954250;28;20051;-66
2022/06/17 12:47:36;;;;;;;7.70;5.50;;;27.90;67.60;;;;;;4967954;28;20546;-67
2022/06/17 12:53:18;;;;;;;9.98;5.78;;;27.70;69.20;;;;;;4952483;29;20051;-66
2022/06/17 12:55:56;;;;;;;9.13;5.38;;;27.70;77.10;;;;;;4956661;28;20045;-66
2022/06/17 12:59:15;;;;;;;9.45;5.25;;;27.50;65.20;;;;;;4964940;28;20047;-67
2022/06/17 13:02:12;;;;;;;11.60;5.70;;;27.80;65.20;;;;;;4949420;28;20499;-66
2022/06/17 13:04:56;;;;;;;11.07;5.80;;;28.20;66.70;;;;;;4963262;28;20523;-67
2022/06/17 13:07:40;;;;;;;9.38;6.03;;;28.60;69.30;;;;;;4968825;28;20070;-66
2022/06/17 13:10:40;;;;;;;8.77;5.00;;;29.10;66.60;;;;;;4971503;28;20415;-67
2022/06/17 13:13:15;;;;;;;11.05;6.15;;;29.20;65.80;;;;;;4951770;28;20053;-67
2022/06/17 13:16:05;;;;;;;8.73;6.03;;;29.60;72.80;;;;;;4971127;28;20047;-66
2022/06/17 13:18:39;;;;;;;9.25;5.40;;;29.80;64.40;;;;;;4969023;28;20054;-66